Havana, Cuba
Current Conditions -  °F | °C
As of 12:55 AM on Thursday 23 Oct 2014 (Local Time) from MUHA Reporting Station
Light Rain Light Rain  
Wind Chill: 73°   Ceiling: 1500
Heat Index: 73°   Visibility: 5mi
Dew Point: 70°   Wind: 6mph
Humidity: 88%   Direction: 110°ESE
Pressure: 29.85"   Gusts: NA
Location:  23.12°N, 82.39°W
Report Text: MUHA 230455Z 11005KT 8000 -RA BKN015 OVC050 23/21 Q1011
Loading
Personal Weather Stations






























Interactive Weather Map
Tropical Storm Tracking
New forecast layout! Learn more

10-Day Weather Forecast

Advertisements
Track Severe Weather on mobile